createdAt,value
2022-08-04T04:08:30.020Z,2.2
2022-08-04T04:10:44.364Z,6.4
2022-08-04T04:12:58.904Z,3.5
2022-08-04T04:15:13.379Z,6.5
2022-08-04T04:17:27.726Z,4.6
2022-08-04T04:19:42.244Z,5.2
2022-08-04T04:21:56.630Z,3.2
2022-08-04T04:24:11.038Z,2.2
2022-08-04T04:26:25.591Z,1.7
2022-08-04T04:28:43.949Z,2
2022-08-04T04:30:58.663Z,1.6
2022-08-04T04:33:13.961Z,1.8
2022-08-04T04:35:28.432Z,1.6
2022-08-04T04:37:47.782Z,1.7
2022-08-04T04:40:01.351Z,1.4
2022-08-04T04:42:15.667Z,1.5
2022-08-04T04:44:32.021Z,1.7
2022-08-04T04:46:46.416Z,1.8
2022-08-04T04:49:00.830Z,1.6
2022-08-04T04:51:15.241Z,1.8
2022-08-04T04:53:30.614Z,1.8
2022-08-04T04:55:48.357Z,1.6
2022-08-04T04:58:03.210Z,1.4
2022-08-04T05:00:17.772Z,2
2022-08-04T05:02:32.145Z,1.8
2022-08-04T05:04:47.048Z,1.7
2022-08-04T05:07:01.479Z,1.6
2022-08-04T05:09:15.846Z,2
2022-08-04T05:11:30.239Z,1.6
2022-08-04T05:14:33.630Z,1.5
2022-08-04T05:16:02.205Z,1.6
2022-08-04T05:18:16.550Z,1.4
2022-08-04T05:20:30.986Z,1.5
2022-08-04T05:22:45.338Z,1.5
2022-08-04T05:24:59.729Z,1.7
2022-08-04T05:27:14.138Z,1.9
2022-08-04T05:29:30.835Z,2
2022-08-04T05:31:44.930Z,1.8
2022-08-04T05:34:00.285Z,2
2022-08-04T05:36:23.785Z,1.5
2022-08-04T05:38:32.997Z,1.2
2022-08-04T05:40:47.359Z,1.5
2022-08-04T05:43:01.729Z,1.8
2022-08-04T05:45:16.126Z,1.5
2022-08-04T05:47:30.522Z,1.4
2022-08-04T05:49:44.858Z,1.5
2022-08-04T05:51:59.278Z,1.5
2022-08-04T05:54:13.671Z,1.8
2022-08-04T05:56:28.056Z,1.6
2022-08-04T05:58:42.370Z,1.6
2022-08-04T06:00:56.782Z,1.5
2022-08-04T06:03:12.159Z,1.5
2022-08-04T06:05:26.503Z,1.5
2022-08-04T06:08:04.686Z,1.5
2022-08-04T06:09:58.321Z,1.7
2022-08-04T06:12:12.744Z,1.5
2022-08-04T06:14:27.303Z,1.5
2022-08-04T06:16:42.630Z,1.6
2022-08-04T06:20:01.394Z,1.5
2022-08-04T06:21:16.632Z,1.3
2022-08-04T06:23:31.078Z,1.5
2022-08-04T06:25:46.432Z,2.2
2022-08-04T06:28:00.798Z,2.1
2022-08-04T06:30:15.157Z,1.7
2022-08-04T06:32:35.522Z,1.8
2022-08-04T06:34:46.876Z,2
2022-08-04T06:37:02.244Z,1.9
2022-08-04T06:39:16.611Z,2.4
2022-08-04T06:41:30.948Z,1.8
2022-08-04T06:43:45.387Z,1.6
2022-08-04T06:46:00.786Z,1.6
2022-08-04T06:48:15.161Z,1.5
2022-08-04T06:51:29.149Z,1.5
2022-08-04T06:52:46.889Z,1.7
2022-08-04T06:55:01.242Z,1.5
2022-08-04T06:57:15.710Z,1.6
2022-08-04T06:59:30.065Z,1.7
2022-08-04T07:01:45.469Z,1.3
2022-08-04T07:03:59.773Z,1.4
2022-08-04T07:06:15.309Z,1.5
2022-08-04T07:08:29.687Z,1.6
2022-08-04T07:10:44.047Z,1.5
2022-08-04T07:12:58.405Z,1.5
2022-08-04T07:15:14.752Z,1.4
2022-08-04T07:17:34.686Z,1.4
2022-08-04T07:19:46.499Z,1.3
2022-08-04T07:22:06.430Z,1.8
2022-08-04T07:24:18.187Z,1.5
2022-08-04T07:26:32.598Z,1.3
2022-08-04T07:28:46.967Z,1.5
2022-08-04T07:31:01.343Z,1.4
2022-08-04T07:33:15.787Z,1.6
2022-08-04T07:36:04.180Z,1.6
2022-08-04T07:37:48.513Z,1.5
2022-08-04T07:40:03.029Z,1.3
2022-08-04T07:42:17.321Z,1.4
2022-08-04T07:44:31.705Z,1.5
2022-08-04T07:46:46.064Z,1.8
2022-08-04T07:49:00.562Z,1.7
2022-08-04T07:51:14.929Z,1.8
2022-08-04T07:53:53.873Z,1.8
2022-08-04T07:55:46.706Z,1.9
2022-08-04T07:58:01.080Z,1.5
2022-08-04T08:00:15.584Z,1.8
2022-08-04T08:02:29.919Z,1.8
2022-08-04T08:04:44.268Z,1.9
2022-08-04T08:06:58.651Z,1.6
2022-08-04T08:09:15.065Z,1.6
2022-08-04T08:12:34.479Z,1.5
2022-08-04T08:13:46.688Z,1.4
2022-08-04T08:16:01.044Z,1.6
2022-08-04T08:18:15.389Z,1.6
2022-08-04T08:20:31.016Z,1.9
2022-08-04T08:22:45.182Z,1.4
2022-08-04T08:24:59.555Z,2.1
2022-08-04T08:27:13.997Z,1.6
2022-08-04T08:29:28.362Z,1.9
2022-08-04T08:31:55.294Z,1.5
2022-08-04T08:34:00.067Z,1.2
2022-08-04T08:36:14.447Z,1.2
2022-08-04T08:38:28.799Z,1.6
2022-08-04T08:40:43.170Z,1.5
2022-08-04T08:42:57.516Z,1.4
2022-08-04T08:45:17.720Z,1.5
2022-08-04T08:47:29.231Z,1.6
2022-08-04T08:50:01.388Z,1.3
2022-08-04T08:52:01.006Z,1.7
2022-08-04T08:54:15.376Z,1.7
2022-08-04T08:56:31.967Z,1.6
2022-08-04T08:58:46.162Z,1.5
2022-08-04T09:01:00.639Z,1.5
2022-08-04T09:03:14.996Z,1.7
2022-08-04T09:05:30.369Z,1.8
2022-08-04T09:07:44.786Z,1.7
2022-08-04T09:09:59.180Z,1.8
2022-08-04T09:12:13.562Z,1.9
2022-08-04T09:14:27.962Z,1.6
2022-08-04T09:16:42.286Z,1.5
2022-08-04T09:18:56.730Z,1.8
2022-08-04T09:21:11.095Z,1.9
2022-08-04T09:23:25.430Z,1.8
2022-08-04T09:25:39.850Z,1.8
2022-08-04T09:27:54.214Z,1.8
2022-08-04T09:30:08.633Z,2.1
2022-08-04T09:32:22.981Z,1.9
2022-08-04T09:34:37.466Z,1.6
2022-08-04T09:36:51.889Z,1.8
2022-08-04T09:39:06.338Z,1.8
2022-08-04T09:41:40.096Z,2.3
2022-08-04T09:43:57.414Z,1.9
2022-08-04T09:45:55.551Z,1.9
2022-08-04T09:48:10.919Z,2.1
